Time;durP1;ratioP1;P1;durP2;ratioP2;P2;SDS_P1;SDS_P2;PMS_P1;PMS_P2;Temp;Humidity;BMP_temperature;BMP_pressure;BME280_temperature;BME280_humidity;BME280_pressure;Samples;Min_cycle;Max_cycle;Signal;HPM_P1;HPM_P2
2022/06/11 00:02:00;;;;;;;0.50;0.40;;;;;;;17.58;100.00;94666.94;5092827;28;20452;-72
2022/06/11 00:04:31;;;;;;;0.40;0.30;;;;;;;17.27;100.00;94590.75;5093035;28;20498;-73
2022/06/11 00:07:05;;;;;;;0.40;0.30;;;;;;;18.34;100.00;94680.69;5092183;28;20515;-72
2022/06/11 00:09:33;;;;;;;0.50;0.30;;;;;;;18.61;100.00;94662.41;5092469;28;20459;-72
2022/06/11 00:12:02;;;;;;;0.40;0.30;;;;;;;18.79;100.00;94659.19;5092321;28;20471;-72
2022/06/11 00:14:33;;;;;;;0.40;0.20;;;;;;;18.94;100.00;94657.72;5092468;28;20527;-74
2022/06/11 00:17:03;;;;;;;0.40;0.33;;;;;;;19.06;100.00;94656.91;5092582;28;20465;-74
2022/06/11 00:19:32;;;;;;;0.40;0.27;;;;;;;18.36;100.00;94653.53;5092357;28;20448;-73
2022/06/11 00:22:04;;;;;;;0.40;0.20;;;;;;;18.35;100.00;94663.50;5092033;28;20991;-73
2022/06/11 00:24:32;;;;;;;0.50;0.50;;;;;;;18.59;100.00;94651.25;5092368;28;20459;-72
2022/06/11 00:27:02;;;;;;;0.40;0.20;;;;;;;18.81;100.00;94658.84;5092620;28;20514;-72
2022/06/11 00:29:33;;;;;;;0.50;0.40;;;;;;;18.89;100.00;94666.00;5092094;28;20506;-71
2022/06/11 00:32:02;;;;;;;0.40;0.20;;;;;;;18.91;100.00;94655.69;5091840;28;20494;-72
2022/06/11 00:34:30;;;;;;;0.40;0.20;;;;;;;18.81;100.00;94665.00;5091847;28;20503;-71
2022/06/11 00:36:59;;;;;;;0.40;0.30;;;;;;;18.91;100.00;94675.28;5092055;28;20474;-71
2022/06/11 00:39:32;;;;;;;0.47;0.30;;;;;;;19.14;100.00;94672.13;5092108;28;20428;-70
2022/06/11 00:42:04;;;;;;;0.40;0.30;;;;;;;19.31;100.00;94666.50;5091796;28;20463;-70
2022/06/11 00:44:32;;;;;;;0.40;0.20;;;;;;;19.30;100.00;94673.00;5091343;28;20482;-70
2022/06/11 00:47:04;;;;;;;0.50;0.40;;;;;;;19.26;100.00;94664.81;5091683;28;20558;-69
2022/06/11 00:49:38;;;;;;;0.40;0.20;;;;;;;19.34;100.00;94671.97;5091706;28;20424;-69
2022/06/11 00:52:26;;;;;;;0.40;0.20;;;;;;;19.28;100.00;94659.88;5091847;28;20416;-71
2022/06/11 00:55:04;;;;;;;0.50;0.27;;;;;;;19.03;100.00;94640.34;5091677;28;20471;-71
2022/06/11 00:57:37;;;;;;;0.40;0.20;;;;;;;18.65;100.00;94572.84;5091933;28;20532;-71
2022/06/11 01:00:10;;;;;;;0.50;0.40;;;;;;;19.35;100.00;94670.06;5092101;28;20516;-71
2022/06/11 01:02:39;;;;;;;0.40;0.20;;;;;;;19.32;100.00;94668.06;5091569;28;20467;-72
2022/06/11 01:05:08;;;;;;;0.40;0.30;;;;;;;19.26;100.00;94653.28;5091582;28;20471;-72
2022/06/11 01:08:14;;;;;;;0.40;0.20;;;;;;;19.45;100.00;94667.72;5091318;28;20500;-72
2022/06/11 01:11:13;;;;;;;0.40;0.20;;;;;;;19.40;100.00;94656.44;5091518;28;20995;-72
2022/06/11 01:13:51;;;;;;;0.40;0.30;;;;;;;19.51;100.00;94658.28;5087439;28;20472;-72
2022/06/11 01:16:26;;;;;;;0.40;0.30;;;;;;;19.36;100.00;94640.16;5091447;28;20503;-72
2022/06/11 01:19:00;;;;;;;0.70;0.70;;;;;;;19.38;100.00;94650.63;5091477;28;20463;-72
2022/06/11 01:21:36;;;;;;;0.43;0.30;;;;;;;19.37;100.00;94649.03;5091938;28;20511;-72
2022/06/11 01:24:27;;;;;;;0.40;0.20;;;;;;;19.40;100.00;94659.91;5091376;28;20522;-71
2022/06/11 01:27:47;;;;;;;0.60;0.60;;;;;;;18.42;100.00;94668.28;5091397;28;20456;-71
2022/06/11 01:30:22;;;;;;;0.70;0.70;;;;;;;17.99;100.00;94670.66;5009193;28;20467;-71
2022/06/11 01:33:07;;;;;;;0.40;0.20;;;;;;;17.86;100.00;94675.19;5009016;28;20495;-70
2022/06/11 01:35:50;;;;;;;0.50;0.30;;;;;;;17.79;100.00;94669.59;5060275;28;20432;-69
2022/06/11 01:38:26;;;;;;;0.40;0.20;;;;;;;18.25;100.00;94696.09;5091256;28;20478;-69
2022/06/11 01:41:03;;;;;;;0.50;0.40;;;;;;;18.15;100.00;94650.16;5091599;28;20439;-69
2022/06/11 01:43:39;;;;;;;0.40;0.20;;;;;;;18.47;100.00;94665.41;5091187;28;21009;-69
2022/06/11 01:46:22;;;;;;;1.17;0.63;;;;;;;17.87;100.00;94663.38;5091471;28;20508;-69
2022/06/11 01:48:53;;;;;;;0.40;0.30;;;;;;;18.15;100.00;94672.38;5091139;28;20494;-69
2022/06/11 01:51:34;;;;;;;0.40;0.30;;;;;;;18.26;100.00;94665.50;5091407;28;20875;-69
2022/06/11 01:54:20;;;;;;;0.40;0.30;;;;;;;18.05;100.00;94670.13;5091247;28;20482;-69
2022/06/11 01:57:12;;;;;;;0.40;0.20;;;;;;;18.09;100.00;94656.84;5094417;28;20928;-69
2022/06/11 02:00:09;;;;;;;0.40;0.30;;;;;;;17.81;100.00;94647.84;5094568;28;20435;-70
2022/06/11 02:03:03;;;;;;;0.43;0.27;;;;;;;17.76;100.00;94646.91;5091684;28;20440;-70
2022/06/11 02:05:48;;;;;;;0.40;0.30;;;;;;;18.19;100.00;94653.75;5102884;28;20466;-69
2022/06/11 02:08:25;;;;;;;0.40;0.30;;;;;;;18.27;100.00;94629.50;5099532;28;20464;-69
2022/06/11 02:11:01;;;;;;;0.40;0.20;;;;;;;18.70;100.00;94653.13;5100545;28;20432;-69
2022/06/11 02:13:35;;;;;;;0.47;0.40;;;;;;;18.89;100.00;94642.63;5094942;28;20977;-69
2022/06/11 02:16:10;;;;;;;0.50;0.30;;;;;;;18.74;100.00;94664.78;5109407;28;20444;-69
2022/06/11 02:18:43;;;;;;;0.40;0.30;;;;;;;17.83;100.00;94635.66;5111837;28;20416;-69
2022/06/11 02:21:14;;;;;;;0.90;0.90;;;;;;;16.92;100.00;94612.47;5110080;28;20432;-68
2022/06/11 02:23:50;;;;;;;0.40;0.20;;;;;;;18.12;100.00;94704.44;5107902;28;20420;-68
2022/06/11 02:26:23;;;;;;;0.40;0.30;;;;;;;17.82;100.00;94638.66;5107594;28;20428;-67
2022/06/11 02:28:53;;;;;;;0.40;0.37;;;;;;;17.86;100.00;94707.38;5098095;28;20464;-67
2022/06/11 02:31:25;;;;;;;0.40;0.30;;;;;;;18.08;100.00;94706.22;5093993;28;20545;-66
2022/06/11 02:33:55;;;;;;;0.40;0.30;;;;;;;18.49;100.00;94695.41;5094250;28;20429;-66
2022/06/11 02:36:27;;;;;;;0.50;0.50;;;;;;;17.30;100.00;94555.28;5094261;28;20432;-66
2022/06/11 02:38:56;;;;;;;0.40;0.20;;;;;;;18.50;100.00;94699.63;5094008;28;20413;-66
2022/06/11 02:41:28;;;;;;;0.50;0.33;;;;;;;18.68;100.00;94689.47;5093873;28;20838;-66
2022/06/11 02:43:56;;;;;;;0.40;0.30;;;;;;;18.75;100.00;94673.59;5094170;28;20460;-66
2022/06/11 02:46:43;;;;;;;0.40;0.30;;;;;;;18.95;100.00;94683.44;5094135;28;20516;-66
2022/06/11 02:49:17;;;;;;;0.40;0.30;;;;;;;18.02;100.00;94594.91;5093644;28;21035;-67
2022/06/11 02:51:48;;;;;;;0.40;0.30;;;;;;;18.30;100.00;94671.75;5093193;28;20475;-66
2022/06/11 02:54:18;;;;;;;0.50;0.30;;;;;;;18.40;100.00;94686.63;5093565;28;20516;-67
2022/06/11 02:56:48;;;;;;;0.40;0.20;;;;;;;18.32;100.00;94679.44;5093273;28;20527;-66
2022/06/11 02:59:17;;;;;;;0.43;0.40;;;;;;;18.26;100.00;94680.81;5093249;28;20506;-67
2022/06/11 03:01:45;;;;;;;0.40;0.30;;;;;;;18.02;100.00;94680.72;5093025;28;20490;-66
2022/06/11 03:04:15;;;;;;;0.50;0.30;;;;;;;18.38;100.00;94675.44;5093251;28;20432;-66
2022/06/11 03:06:44;;;;;;;0.40;0.30;;;;;;;18.55;100.00;94677.94;5093234;28;20471;-67
2022/06/11 03:09:16;;;;;;;0.40;0.30;;;;;;;18.55;100.00;94651.13;5093246;28;20576;-67
2022/06/11 03:11:45;;;;;;;0.40;0.30;;;;;;;18.85;100.00;94663.19;5093272;28;20424;-68
2022/06/11 03:14:14;;;;;;;0.40;0.20;;;;;;;19.02;100.00;94646.06;5093275;28;20464;-67
2022/06/11 03:16:44;;;;;;;0.50;0.30;;;;;;;18.96;100.00;94656.25;5093548;28;20453;-68
2022/06/11 03:19:15;;;;;;;0.40;0.30;;;;;;;18.91;100.00;94653.81;5093046;28;20841;-67
2022/06/11 03:21:44;;;;;;;0.40;0.30;;;;;;;19.04;100.00;94673.38;5093342;28;20900;-68
2022/06/11 03:24:12;;;;;;;0.77;0.77;;;;;;;18.85;100.00;94682.00;5093364;28;20483;-67
2022/06/11 03:26:40;;;;;;;0.40;0.30;;;;;;;18.66;100.00;94619.25;5093056;28;20421;-67
2022/06/11 03:29:10;;;;;;;0.40;0.30;;;;;;;19.03;100.00;94674.47;5092920;28;20563;-67
2022/06/11 03:31:39;;;;;;;0.40;0.30;;;;;;;19.26;100.00;94693.59;5092974;28;20496;-68
2022/06/11 03:34:07;;;;;;;0.40;0.30;;;;;;;19.28;100.00;94710.16;5093226;28;20487;-70
2022/06/11 03:36:37;;;;;;;0.40;0.30;;;;;;;19.25;100.00;94711.59;5093065;28;20923;-69
2022/06/11 03:39:06;;;;;;;0.40;0.27;;;;;;;19.30;100.00;94707.94;5092874;28;20428;-67
2022/06/11 03:41:34;;;;;;;0.40;0.30;;;;;;;19.28;100.00;94702.88;5093290;28;20460;-68
2022/06/11 03:44:03;;;;;;;0.80;0.30;;;;;;;19.15;100.00;94701.31;5092832;28;20527;-68
2022/06/11 03:46:31;;;;;;;2.20;0.50;;;;;;;19.08;100.00;94716.44;5092795;28;20425;-56
2022/06/11 03:49:00;;;;;;;0.40;0.40;;;;;;;18.72;100.00;94709.19;5092823;28;20471;-56
2022/06/11 03:51:28;;;;;;;0.40;0.30;;;;;;;18.82;100.00;94716.81;5092557;28;21078;-55
2022/06/11 03:53:58;;;;;;;0.50;0.30;;;;;;;18.77;100.00;94707.03;5092651;28;20476;-71
2022/06/11 03:56:27;;;;;;;0.50;0.30;;;;;;;18.58;100.00;94720.22;5092516;28;20787;-69
2022/06/11 03:58:55;;;;;;;0.40;0.30;;;;;;;18.43;100.00;94712.81;5092447;28;20424;-69
2022/06/11 04:01:24;;;;;;;0.40;0.20;;;;;;;18.74;100.00;94718.47;5091839;28;20463;-68
2022/06/11 04:03:56;;;;;;;0.40;0.20;;;;;;;18.91;100.00;94712.09;5092727;28;20417;-68
2022/06/11 04:06:30;;;;;;;0.40;0.27;;;;;;;19.06;100.00;94713.31;5092662;28;20507;-70
2022/06/11 04:09:06;;;;;;;0.40;0.30;;;;;;;18.30;100.00;94713.88;5095156;28;20518;-69
2022/06/11 04:11:34;;;;;;;0.40;0.20;;;;;;;18.03;100.00;94712.59;5095782;28;20428;-68
2022/06/11 04:14:03;;;;;;;0.60;0.50;;;;;;;17.71;100.00;94711.44;5101591;28;20444;-68
2022/06/11 04:16:35;;;;;;;0.50;0.30;;;;;;;17.05;100.00;94610.63;5106535;28;20955;-69
2022/06/11 04:19:06;;;;;;;0.50;0.30;;;;;;;17.69;100.00;94692.22;5094765;28;20428;-68
2022/06/11 04:21:37;;;;;;;0.50;0.40;;;;;;;18.21;100.00;94710.53;5094858;28;20480;-68
2022/06/11 04:24:08;;;;;;;0.40;0.30;;;;;;;18.45;100.00;94707.09;5092009;28;20474;-69
2022/06/11 04:26:54;;;;;;;0.67;0.30;;;;;;;18.64;100.00;94692.06;5091713;28;20867;-69
2022/06/11 04:29:31;;;;;;;0.40;0.30;;;;;;;18.81;100.00;94702.59;5091207;28;20468;-68
2022/06/11 04:32:02;;;;;;;0.40;0.30;;;;;;;18.46;100.00;94701.41;5091437;28;20898;-68
2022/06/11 04:34:31;;;;;;;0.53;0.53;;;;;;;18.89;100.00;94708.97;5091924;28;20417;-68
2022/06/11 04:37:00;;;;;;;0.93;0.63;;;;;;;19.19;100.00;94701.44;5091950;28;20469;-67
2022/06/11 04:39:33;;;;;;;0.90;0.47;;;;;;;18.90;100.00;94697.88;5091905;28;20437;-67
2022/06/11 04:42:05;;;;;;;0.40;0.30;;;;;;;18.58;100.00;94698.75;5092166;28;20506;-67
2022/06/11 04:44:35;;;;;;;0.40;0.30;;;;;;;18.98;100.00;94709.63;5091652;28;20453;-67
2022/06/11 04:47:05;;;;;;;0.50;0.50;;;;;;;19.40;100.00;94707.50;5091992;28;20428;-66
2022/06/11 04:49:34;;;;;;;0.40;0.30;;;;;;;19.19;100.00;94664.63;5091546;28;20484;-66
2022/06/11 04:52:03;;;;;;;0.40;0.30;;;;;;;19.57;100.00;94686.50;5091591;28;20424;-66
2022/06/11 04:54:33;;;;;;;0.50;0.37;;;;;;;19.19;100.00;94626.22;5091666;28;20428;-66
2022/06/11 04:57:01;;;;;;;0.53;0.40;;;;;;;19.50;100.00;94710.50;5091337;28;20464;-67
2022/06/11 04:59:32;;;;;;;0.40;0.30;;;;;;;19.77;100.00;94705.47;5091850;28;20444;-67
2022/06/11 05:02:03;;;;;;;0.40;0.30;;;;;;;19.96;100.00;94709.09;5091539;28;20424;-65
2022/06/11 05:04:32;;;;;;;0.40;0.20;;;;;;;20.10;100.00;94706.03;5091552;28;20424;-65
2022/06/11 05:07:01;;;;;;;0.60;0.30;;;;;;;19.91;100.00;94709.34;5091613;28;20467;-64
2022/06/11 05:09:36;;;;;;;0.50;0.30;;;;;;;19.70;100.00;94722.22;5091840;28;20464;-65
2022/06/11 05:12:07;;;;;;;0.40;0.30;;;;;;;19.82;100.00;94724.84;5091859;28;20431;-64
2022/06/11 05:14:35;;;;;;;0.40;0.20;;;;;;;19.80;100.00;94694.03;5091409;28;20511;-64
2022/06/11 05:17:05;;;;;;;0.70;0.40;;;;;;;19.85;100.00;94718.78;5091303;28;20502;-64
2022/06/11 05:19:34;;;;;;;0.50;0.30;;;;;;;19.28;100.00;94659.09;5091340;28;20468;-64
2022/06/11 05:22:03;;;;;;;0.40;0.30;;;;;;;19.83;100.00;94717.56;5091348;28;20463;-64
2022/06/11 05:24:33;;;;;;;0.50;0.30;;;;;;;20.40;100.00;94720.69;5091218;28;20527;-64
2022/06/11 05:27:06;;;;;;;0.70;0.33;;;;;;;20.67;100.00;94709.06;5091225;28;20464;-64
2022/06/11 05:29:40;;;;;;;0.40;0.30;;;;;;;20.94;100.00;94726.28;5091152;28;20606;-64
2022/06/11 05:32:09;;;;;;;0.40;0.30;;;;;;;20.94;100.00;94725.50;5094818;28;20506;-63
2022/06/11 05:34:38;;;;;;;3.03;0.73;;;;;;;20.85;100.00;94723.75;5095060;28;20424;-63
2022/06/11 05:37:06;;;;;;;0.40;0.30;;;;;;;21.07;100.00;94724.31;5094590;28;20514;-64
2022/06/11 05:39:46;;;;;;;0.40;0.30;;;;;;;21.19;100.00;94721.50;5095053;28;20427;-63
2022/06/11 05:42:15;;;;;;;0.40;0.30;;;;;;;21.23;100.00;94727.75;5095122;28;20428;-63
2022/06/11 05:44:44;;;;;;;0.40;0.23;;;;;;;21.04;100.00;94723.06;5095210;28;20515;-63
2022/06/11 05:47:17;;;;;;;0.40;0.40;;;;;;;20.62;100.00;94695.09;5094772;28;20524;-64
2022/06/11 05:49:48;;;;;;;0.40;0.20;;;;;;;21.02;100.00;94733.41;5095108;28;20542;-64
2022/06/11 05:52:22;;;;;;;0.67;0.50;;;;;;;21.23;100.00;94730.44;5094920;28;20511;-64
2022/06/11 05:54:58;;;;;;;0.40;0.30;;;;;;;21.24;100.00;94734.72;5094844;28;20887;-63
2022/06/11 05:57:29;;;;;;;0.40;0.20;;;;;;;21.14;100.00;94727.16;5094596;28;21015;-63
2022/06/11 06:00:02;;;;;;;0.50;0.43;;;;;;;20.99;100.00;94734.13;5094536;28;20456;-63
2022/06/11 06:02:31;;;;;;;0.43;0.33;;;;;;;20.69;100.00;94708.75;5094665;28;20865;-63
2022/06/11 06:04:59;;;;;;;0.40;0.20;;;;;;;20.61;100.00;94739.31;5094467;28;20861;-58
2022/06/11 06:07:28;;;;;;;0.50;0.40;;;;;;;21.12;100.00;94743.69;5094754;28;20519;-58
2022/06/11 06:09:58;;;;;;;0.50;0.30;;;;;;;21.49;100.00;94715.28;5094782;28;20487;-58
2022/06/11 06:12:31;;;;;;;0.97;0.97;;;;;;;21.80;100.00;94737.88;5094796;28;20871;-59
2022/06/11 06:15:03;;;;;;;0.50;0.33;;;;;;;22.10;100.00;94738.91;5094666;28;20510;-59
2022/06/11 06:17:32;;;;;;;0.70;0.63;;;;;;;22.15;100.00;94727.84;5094619;28;20427;-59
2022/06/11 06:20:01;;;;;;;0.40;0.30;;;;;;;22.33;100.00;94742.47;5094566;28;20515;-59
2022/06/11 06:22:29;;;;;;;0.97;0.53;;;;;;;22.76;100.00;94727.84;5094481;28;20428;-60
2022/06/11 06:24:59;;;;;;;0.40;0.30;;;;;;;23.02;100.00;94732.53;5094536;28;20478;-60
2022/06/11 06:27:28;;;;;;;0.50;0.30;;;;;;;22.85;100.00;94743.78;5094150;28;20881;-60
2022/06/11 06:29:56;;;;;;;0.40;0.20;;;;;;;22.15;100.00;94619.88;5092870;28;20554;-60
2022/06/11 06:32:24;;;;;;;0.80;0.50;;;;;;;22.96;100.00;94752.88;5094258;28;20507;-59
2022/06/11 06:34:53;;;;;;;0.40;0.30;;;;;;;23.13;100.00;94753.16;5094099;28;20928;-60
2022/06/11 06:37:21;;;;;;;0.40;0.30;;;;;;;23.18;100.00;94746.66;5094339;28;20473;-60
2022/06/11 06:39:50;;;;;;;0.40;0.30;;;;;;;23.21;100.00;94733.22;5093989;28;20432;-60
2022/06/11 06:42:20;;;;;;;0.40;0.20;;;;;;;23.66;100.00;94748.59;5093424;28;20408;-60
2022/06/11 06:44:48;;;;;;;0.50;0.30;;;;;;;23.87;100.00;94748.09;5093802;28;20471;-61
2022/06/11 06:47:17;;;;;;;1.23;1.13;;;;;;;24.11;100.00;94753.06;5094046;28;20814;-60
2022/06/11 06:49:45;;;;;;;0.60;0.50;;;;;;;24.17;100.00;94745.41;5093862;28;20457;-60
2022/06/11 06:52:13;;;;;;;0.50;0.40;;;;;;;24.17;100.00;94748.09;5093823;28;20416;-60
2022/06/11 06:54:42;;;;;;;0.40;0.30;;;;;;;24.07;100.00;94751.44;5093959;28;20828;-60
2022/06/11 06:57:10;;;;;;;0.60;0.40;;;;;;;24.03;100.00;94746.75;5092965;28;20868;-60
2022/06/11 06:59:41;;;;;;;0.50;0.40;;;;;;;23.41;100.00;94725.81;5093668;28;20572;-60
2022/06/11 07:02:17;;;;;;;0.77;0.57;;;;;;;23.28;100.00;94743.34;5093507;28;20432;-60
2022/06/11 07:04:46;;;;;;;0.40;0.30;;;;;;;23.61;100.00;94742.69;5093509;28;20456;-60
2022/06/11 07:07:15;;;;;;;0.50;0.40;;;;;;;23.96;100.00;94740.47;5093662;28;20427;-60
2022/06/11 07:09:44;;;;;;;0.40;0.20;;;;;;;24.00;100.00;94741.31;5093530;28;20436;-60
2022/06/11 07:12:12;;;;;;;0.40;0.20;;;;;;;23.73;100.00;94674.84;5093296;28;20507;-60
2022/06/11 07:14:42;;;;;;;0.40;0.20;;;;;;;24.12;100.00;94738.38;5093448;28;20470;-60
2022/06/11 07:17:12;;;;;;;0.50;0.30;;;;;;;23.94;100.00;94754.38;5093373;28;20467;-60
2022/06/11 07:19:46;;;;;;;0.47;0.37;;;;;;;24.15;100.00;94753.91;5093127;28;20454;-60
2022/06/11 07:22:20;;;;;;;0.40;0.30;;;;;;;23.92;100.00;94745.06;5093457;28;20965;-60
2022/06/11 07:24:49;;;;;;;0.40;0.30;;;;;;;23.96;100.00;94743.16;5093265;28;20415;-60
2022/06/11 07:27:20;;;;;;;0.40;0.30;;;;;;;24.08;100.00;94750.31;5092862;28;20507;-60
2022/06/11 07:29:55;;;;;;;0.47;0.40;;;;;;;23.44;100.00;94714.25;5092815;28;20479;-60
2022/06/11 07:32:29;;;;;;;0.50;0.47;;;;;;;23.09;100.00;94713.69;5092853;28;20471;-72
2022/06/11 07:35:00;;;;;;;0.50;0.40;;;;;;;23.43;100.00;94755.22;5093103;28;20555;-72
2022/06/11 07:37:28;;;;;;;1.87;0.60;;;;;;;23.39;100.00;94768.66;5092911;28;20520;-73
2022/06/11 07:39:57;;;;;;;0.43;0.33;;;;;;;22.59;100.00;94766.09;5092964;28;20429;-72
2022/06/11 07:42:25;;;;;;;0.40;0.30;;;;;;;22.89;100.00;94768.97;5092869;28;20912;-73
2022/06/11 07:44:55;;;;;;;0.60;0.50;;;;;;;21.45;100.00;94735.97;5093182;28;20827;-75
2022/06/11 07:50:07;;;;;;;0.47;0.33;;;;;;;21.51;100.00;94777.72;5091733;28;20440;-57
2022/06/11 07:52:35;;;;;;;0.43;0.30;;;;;;;21.23;100.00;94781.66;5091841;28;20421;-57
2022/06/11 07:55:04;;;;;;;0.40;0.30;;;;;;;21.76;100.00;94782.88;5092830;28;20519;-56
2022/06/11 07:57:33;;;;;;;0.40;0.20;;;;;;;21.84;100.00;94788.06;5092255;28;20436;-55
2022/06/11 08:00:04;;;;;;;0.50;0.50;;;;;;;21.33;100.00;94792.69;5092306;28;20417;-55
2022/06/11 08:02:32;;;;;;;0.50;0.37;;;;;;;21.77;100.00;94770.97;5092672;28;20539;-56
2022/06/11 08:05:01;;;;;;;0.40;0.30;;;;;;;21.17;100.00;94783.06;5092593;28;20455;-56
2022/06/11 08:07:29;;;;;;;0.60;0.40;;;;;;;21.46;100.00;94793.38;5092498;28;20455;-56
2022/06/11 08:09:58;;;;;;;0.50;0.30;;;;;;;21.98;100.00;94793.03;5092655;28;20483;-56
2022/06/11 08:12:27;;;;;;;0.40;0.30;;;;;;;21.85;100.00;94767.28;5092291;28;20463;-55
2022/06/11 08:14:56;;;;;;;0.40;0.30;;;;;;;21.58;100.00;94798.66;5092144;28;20417;-56
2022/06/11 08:17:34;;;;;;;0.47;0.33;;;;;;;21.12;100.00;94799.50;5092120;28;20478;-56
2022/06/11 08:20:06;;;;;;;0.70;0.30;;;;;;;21.85;100.00;94800.47;5092191;28;20424;-54
2022/06/11 08:22:35;;;;;;;0.40;0.30;;;;;;;21.65;100.00;94776.47;5092413;28;20452;-55
2022/06/11 08:25:04;;;;;;;1.03;0.40;;;;;;;21.93;100.00;94787.91;5092156;28;20478;-55
2022/06/11 08:27:32;;;;;;;0.40;0.30;;;;;;;21.40;100.00;94776.69;5091982;28;21025;-55
2022/06/11 08:30:01;;;;;;;0.60;0.50;;;;;;;22.03;100.00;94768.47;5091816;28;20424;-55
2022/06/11 08:32:29;;;;;;;0.47;0.40;;;;;;;21.94;100.00;94790.25;5091992;28;20924;-53
2022/06/11 08:34:59;;;;;;;0.50;0.37;;;;;;;22.09;100.00;94791.31;5091391;28;20844;-55
2022/06/11 08:37:28;;;;;;;0.40;0.33;;;;;;;22.59;100.00;94787.72;5091958;28;20469;-55
2022/06/11 08:39:56;;;;;;;0.40;0.40;;;;;;;22.80;100.00;94774.59;5092037;28;20511;-56
2022/06/11 08:42:37;;;;;;;0.50;0.30;;;;;;;22.65;100.00;94784.38;5091977;28;20456;-56
2022/06/11 08:45:13;;;;;;;0.40;0.30;;;;;;;22.98;100.00;94783.00;5091385;28;20912;-54
2022/06/11 08:47:46;;;;;;;0.80;0.80;;;;;;;23.16;100.00;94768.66;5090002;28;20878;-54
2022/06/11 08:50:19;;;;;;;0.50;0.30;;;;;;;22.79;100.00;94753.34;5091380;28;20467;-55
2022/06/11 08:52:53;;;;;;;1.70;0.80;;;;;;;22.37;100.00;94791.91;5092211;28;20468;-64
2022/06/11 08:55:23;;;;;;;0.97;0.70;;;;;;;21.94;100.00;94755.19;5092164;28;20866;-58
2022/06/11 08:58:03;;;;;;;0.40;0.30;;;;;;;22.22;100.00;94779.25;5091637;28;20432;-58
2022/06/11 09:00:40;;;;;;;0.50;0.40;;;;;;;22.35;100.00;94790.69;5091788;28;20471;-58
2022/06/11 09:03:20;;;;;;;0.50;0.30;;;;;;;22.04;100.00;94786.22;5091937;28;20513;-58
2022/06/11 09:06:39;;;;;;;0.50;0.50;;;;;;;22.68;100.00;94769.38;5095656;28;20531;-57
2022/06/11 09:09:14;;;;;;;0.50;0.30;;;;;;;22.67;100.00;94730.75;5095644;28;20515;-57
2022/06/11 09:12:01;;;;;;;0.40;0.30;;;;;;;23.06;100.00;94771.97;5096066;28;20884;-57
2022/06/11 09:14:56;;;;;;;0.40;0.30;;;;;;;23.33;100.00;94743.03;5095275;28;20420;-58
2022/06/11 09:17:54;;;;;;;0.50;0.30;;;;;;;23.59;100.00;94764.72;5095465;28;20486;-58
2022/06/11 09:20:34;;;;;;;0.40;0.20;;;;;;;23.17;100.00;94732.34;5079163;28;20891;-58
2022/06/11 09:23:38;;;;;;;0.50;0.50;;;;;;;23.51;100.00;94732.50;5087361;28;20490;-58
2022/06/11 09:26:24;;;;;;;0.50;0.30;;;;;;;23.98;100.00;94766.03;5093553;28;20463;-58
2022/06/11 09:29:06;;;;;;;0.50;0.40;;;;;;;24.17;100.00;94767.06;5095450;28;20516;-59
2022/06/11 09:31:41;;;;;;;0.90;0.40;;;;;;;23.62;100.00;94682.81;5095074;28;21053;-59
2022/06/11 09:34:14;;;;;;;2.20;0.77;;;;;;;23.52;100.00;94656.41;5095327;28;20470;-59
2022/06/11 09:36:49;;;;;;;0.97;0.97;;;;;;;23.71;100.00;94767.19;5095083;28;20463;-59
2022/06/11 09:39:40;;;;;;;0.40;0.30;;;;;;;24.52;100.00;94772.88;5094250;28;20519;-60
2022/06/11 09:42:43;;;;;;;0.40;0.30;;;;;;;25.59;100.00;94759.19;5095027;28;20432;-61
2022/06/11 09:45:20;;;;;;;0.40;0.40;;;;;;;25.98;100.00;94735.78;5095350;28;20511;-61
2022/06/11 09:48:12;;;;;;;0.70;0.40;;;;;;;25.49;100.00;94657.56;5095097;28;20420;-60
2022/06/11 09:50:49;;;;;;;0.40;0.30;;;;;;;26.48;100.00;94745.72;5095027;28;20494;-60
2022/06/11 09:53:36;;;;;;;0.60;0.53;;;;;;;26.40;100.00;94740.63;5095313;28;20526;-60
2022/06/11 09:56:15;;;;;;;0.40;0.30;;;;;;;26.50;100.00;94745.31;5094530;28;20444;-60
2022/06/11 09:58:53;;;;;;;0.50;0.50;;;;;;;26.34;100.00;94745.63;5094585;28;20477;-60
2022/06/11 10:01:29;;;;;;;0.40;0.30;;;;;;;26.33;100.00;94757.69;5094700;28;20518;-60
2022/06/11 10:04:06;;;;;;;0.40;0.40;;;;;;;26.56;100.00;94753.88;5094609;28;20930;-58
2022/06/11 10:06:41;;;;;;;0.40;0.30;;;;;;;26.32;91.61;94737.09;5094831;28;20460;-59
2022/06/11 10:09:17;;;;;;;0.40;0.30;;;;;;;26.66;87.64;94744.97;5094924;28;20877;-59
2022/06/11 10:11:52;;;;;;;0.40;0.20;;;;;;;26.38;76.91;94661.44;5094560;28;20499;-59
2022/06/11 10:14:30;;;;;;;0.30;0.30;;;;;;;26.85;69.96;94736.47;5094610;28;20486;-59
2022/06/11 10:17:13;;;;;;;11.63;0.30;;;;;;;25.57;78.32;94587.81;5093401;28;20515;-59
2022/06/11 10:19:48;;;;;;;0.40;0.30;;;;;;;26.58;86.46;94689.81;5094427;28;20503;-60
2022/06/11 10:22:22;;;;;;;0.40;0.30;;;;;;;25.46;83.35;94674.59;5094436;28;20460;-60
2022/06/11 10:25:01;;;;;;;0.40;0.30;;;;;;;24.35;87.56;94546.75;5095026;28;20944;-60
2022/06/11 10:27:40;;;;;;;0.30;0.30;;;;;;;26.07;91.15;94725.34;5094059;28;20436;-59
2022/06/11 10:30:28;;;;;;;0.40;0.30;;;;;;;26.01;84.71;94675.25;5093972;28;20534;-59
2022/06/11 10:32:58;;;;;;;0.40;0.20;;;;;;;26.10;90.82;94686.56;5093728;28;20505;-62
2022/06/11 10:35:31;;;;;;;0.40;0.30;;;;;;;25.92;90.52;94718.28;5094151;28;20858;-62
2022/06/11 10:38:08;;;;;;;0.40;0.30;;;;;;;25.92;100.00;94731.84;5094176;28;20768;-62
2022/06/11 10:40:41;;;;;;;0.43;0.40;;;;;;;25.99;98.26;94710.16;5093850;28;20474;-61
2022/06/11 10:43:18;;;;;;;0.50;0.40;;;;;;;27.04;89.62;94736.88;5093783;28;20428;-61
2022/06/11 10:45:50;;;;;;;0.30;0.20;;;;;;;27.12;85.38;94734.97;5093849;28;20420;-59
2022/06/11 10:48:21;;;;;;;0.30;0.20;;;;;;;26.31;77.92;94735.53;5093686;28;20980;-59
2022/06/11 10:50:51;;;;;;;0.60;0.40;;;;;;;26.95;81.13;94730.28;5093405;28;20420;-60
2022/06/11 10:53:24;;;;;;;0.40;0.30;;;;;;;26.56;74.29;94685.94;5093116;28;20542;-60
2022/06/11 10:55:57;;;;;;;0.40;0.40;;;;;;;27.00;72.57;94740.78;5093460;28;20815;-60
2022/06/11 10:58:31;;;;;;;0.40;0.30;;;;;;;26.67;71.72;94692.13;5093651;28;20432;-60
2022/06/11 11:01:06;;;;;;;0.40;0.30;;;;;;;26.71;79.68;94720.13;5093253;28;20431;-60
2022/06/11 11:03:42;;;;;;;0.30;0.20;;;;;;;26.74;78.77;94741.09;5093892;28;20428;-60
2022/06/11 11:06:18;;;;;;;0.40;0.40;;;;;;;25.07;82.09;94587.53;5093131;28;20465;-60
2022/06/11 11:08:53;;;;;;;0.40;0.30;;;;;;;25.42;83.75;94605.97;5093742;28;21139;-60
2022/06/11 11:11:24;;;;;;;0.57;0.57;;;;;;;25.39;85.43;94513.69;5093274;28;20808;-61
2022/06/11 11:14:05;;;;;;;0.50;0.30;;;;;;;26.57;82.11;94733.66;5093090;28;20547;-60
2022/06/11 11:16:39;;;;;;;0.33;0.20;;;;;;;26.34;76.73;94720.41;5092733;28;20464;-61
2022/06/11 11:19:16;;;;;;;0.40;0.30;;;;;;;25.11;78.82;94622.81;5093642;28;20605;-61
2022/06/11 11:21:52;;;;;;;0.40;0.30;;;;;;;25.98;88.50;94676.03;5092378;28;20516;-61
2022/06/11 11:24:25;;;;;;;0.40;0.30;;;;;;;25.50;83.02;94720.75;5092920;28;20424;-62
2022/06/11 11:26:58;;;;;;;0.43;0.30;;;;;;;24.65;90.86;94711.88;5093291;28;20459;-63
2022/06/11 11:29:31;;;;;;;0.60;0.60;;;;;;;24.70;100.00;94643.00;5092866;28;20427;-63
2022/06/11 11:32:04;;;;;;;0.40;0.30;;;;;;;25.52;94.53;94710.31;5092385;28;20526;-63
2022/06/11 11:34:35;;;;;;;0.47;0.47;;;;;;;25.24;96.96;94621.34;5092984;28;20455;-64
2022/06/11 11:37:23;;;;;;;0.30;0.20;;;;;;;25.35;96.37;94634.97;5092761;28;20432;-65
2022/06/11 11:39:54;;;;;;;0.40;0.20;;;;;;;25.64;93.29;94707.28;5092854;28;20490;-64
2022/06/11 11:42:25;;;;;;;0.40;0.30;;;;;;;24.16;94.44;94571.31;5092401;28;20428;-64
2022/06/11 11:44:58;;;;;;;0.40;0.30;;;;;;;24.79;97.35;94701.22;5092259;28;20416;-64
2022/06/11 11:47:34;;;;;;;0.70;0.40;;;;;;;24.18;98.43;94617.00;5092120;28;20432;-65
2022/06/11 11:50:16;;;;;;;0.40;0.30;;;;;;;24.77;100.00;94691.88;5084046;28;20932;-65
2022/06/11 11:52:52;;;;;;;0.60;0.30;;;;;;;24.00;99.59;94631.09;5092489;28;20487;-64
2022/06/11 11:55:26;;;;;;;0.47;0.47;;;;;;;24.52;94.03;94676.13;5092424;28;20883;-64
2022/06/11 11:58:00;;;;;;;0.40;0.30;;;;;;;24.90;99.38;94701.28;5092367;28;20420;-64
2022/06/11 12:00:32;;;;;;;0.40;0.30;;;;;;;24.24;100.00;94710.28;5092289;28;20464;-65